EWG5KW EDDC-EDDH
Flight info
| Callsign | EWG5KW |
|---|---|
| Flight time | N/A |
| Altitude | 28000 |
| Route | OSKAN9E OSKAN M748 RARUP RARUP6A |
| Aircraft | A319/M-SDE3FGHIRWY/LB1 |
Departure
| Time | 2026-05-06 16:29 |
|---|---|
| Airport | Dresden Airport (EDDC) |
Arrival
| Time | N/A |
|---|---|
| Airport | Hamburg Helmut Schmidt Airport (EDDH) |
| Time | Latitude | Longitude | Altitude | Speed | Heading |
|---|---|---|---|---|---|
| 2026-05-06 16:03 | 51.12654 | 13.76475 | 716 ft | 0 kts | 221° |
| 2026-05-06 16:21 | 51.12655 | 13.76476 | 711 ft | 1 kts | 221° |
| 2026-05-06 16:21 | 51.12673 | 13.76502 | 714 ft | 4 kts | 223° |
| 2026-05-06 16:21 | 51.12692 | 13.76532 | 712 ft | 4 kts | 227° |
| 2026-05-06 16:22 | 51.12710 | 13.76564 | 716 ft | 4 kts | 233° |
| 2026-05-06 16:22 | 51.12724 | 13.76600 | 716 ft | 4 kts | 253° |
| 2026-05-06 16:22 | 51.12724 | 13.76633 | 716 ft | 2 kts | 310° |
| 2026-05-06 16:22 | 51.12724 | 13.76635 | 716 ft | 0 kts | 311° |
| 2026-05-06 16:24 | 51.12724 | 13.76634 | 711 ft | 1 kts | 311° |
| 2026-05-06 16:24 | 51.12742 | 13.76602 | 711 ft | 7 kts | 311° |
| 2026-05-06 16:24 | 51.12781 | 13.76529 | 713 ft | 11 kts | 311° |
| 2026-05-06 16:25 | 51.12809 | 13.76422 | 715 ft | 12 kts | 240° |
| 2026-05-06 16:25 | 51.12737 | 13.76320 | 711 ft | 16 kts | 221° |
| 2026-05-06 16:25 | 51.12650 | 13.76197 | 712 ft | 17 kts | 221° |
| 2026-05-06 16:25 | 51.12581 | 13.76086 | 711 ft | 12 kts | 249° |
| 2026-05-06 16:26 | 51.12622 | 13.75975 | 710 ft | 12 kts | 313° |
| 2026-05-06 16:26 | 51.12641 | 13.75941 | 710 ft | 0 kts | 310° |
| 2026-05-06 16:26 | 51.12647 | 13.75930 | 710 ft | 4 kts | 311° |
| 2026-05-06 16:27 | 51.12673 | 13.75882 | 711 ft | 7 kts | 311° |
| 2026-05-06 16:27 | 51.12708 | 13.75833 | 707 ft | 7 kts | 341° |
| 2026-05-06 16:27 | 51.12754 | 13.75862 | 712 ft | 6 kts | 42° |
| 2026-05-06 16:27 | 51.12754 | 13.75863 | 715 ft | 0 kts | 41° |
| 2026-05-06 16:28 | 51.12755 | 13.75864 | 715 ft | 1 kts | 41° |
| 2026-05-06 16:28 | 51.12858 | 13.76008 | 714 ft | 57 kts | 41° |
| 2026-05-06 16:28 | 51.13348 | 13.76680 | 712 ft | 126 kts | 41° |
| 2026-05-06 16:29 | 51.14126 | 13.77751 | 958 ft | 154 kts | 39° |
| 2026-05-06 16:29 | 51.14917 | 13.78893 | 1666 ft | 154 kts | 41° |
| 2026-05-06 16:29 | 51.15761 | 13.80089 | 2132 ft | 172 kts | 40° |
| 2026-05-06 16:29 | 51.16718 | 13.81423 | 2512 ft | 195 kts | 40° |
| 2026-05-06 16:30 | 51.17803 | 13.82917 | 2867 ft | 219 kts | 40° |
| 2026-05-06 16:30 | 51.18598 | 13.84007 | 3147 ft | 236 kts | 40° |
| 2026-05-06 16:30 | 51.20606 | 13.85846 | 3865 ft | 266 kts | 6° |
| 2026-05-06 16:30 | 51.22436 | 13.85565 | 4724 ft | 273 kts | 343° |
| 2026-05-06 16:31 | 51.24296 | 13.84871 | 5745 ft | 277 kts | 344° |
| 2026-05-06 16:31 | 51.26202 | 13.84218 | 6652 ft | 284 kts | 346° |
| 2026-05-06 16:31 | 51.28165 | 13.83659 | 7583 ft | 289 kts | 347° |
| 2026-05-06 16:31 | 51.30167 | 13.83117 | 8544 ft | 293 kts | 342° |
| 2026-05-06 16:32 | 51.32072 | 13.81979 | 9472 ft | 293 kts | 328° |
| 2026-05-06 16:32 | 51.33787 | 13.80113 | 10205 ft | 301 kts | 315° |
| 2026-05-06 16:32 | 51.35425 | 13.77828 | 10548 ft | 324 kts | 314° |
| 2026-05-06 16:32 | 51.37145 | 13.75388 | 11117 ft | 336 kts | 314° |
| 2026-05-06 16:33 | 51.38911 | 13.72883 | 11904 ft | 342 kts | 314° |
| 2026-05-06 16:33 | 51.40706 | 13.70349 | 12724 ft | 346 kts | 314° |
| 2026-05-06 16:33 | 51.42528 | 13.67777 | 13533 ft | 350 kts | 314° |
| 2026-05-06 16:34 | 51.46230 | 13.62543 | 14943 ft | 359 kts | 315° |
| 2026-05-06 16:34 | 51.48114 | 13.59879 | 15627 ft | 364 kts | 315° |
| 2026-05-06 16:34 | 51.50024 | 13.57180 | 16352 ft | 368 kts | 315° |
| 2026-05-06 16:34 | 51.51929 | 13.54494 | 17047 ft | 371 kts | 314° |
| 2026-05-06 16:35 | 51.53883 | 13.51732 | 17728 ft | 376 kts | 314° |
| 2026-05-06 16:35 | 51.55880 | 13.48902 | 18363 ft | 380 kts | 314° |
| 2026-05-06 16:35 | 51.57869 | 13.46074 | 18968 ft | 384 kts | 314° |
| 2026-05-06 16:35 | 51.59878 | 13.43212 | 19586 ft | 387 kts | 314° |
| 2026-05-06 16:36 | 51.61902 | 13.40324 | 20216 ft | 390 kts | 314° |
| 2026-05-06 16:36 | 51.63246 | 13.38402 | 20623 ft | 393 kts | 314° |
| 2026-05-06 16:36 | 51.65300 | 13.35462 | 21232 ft | 396 kts | 314° |
| 2026-05-06 16:36 | 51.67365 | 13.32509 | 21841 ft | 399 kts | 314° |
| 2026-05-06 16:37 | 51.69449 | 13.29524 | 22428 ft | 403 kts | 314° |
| 2026-05-06 16:37 | 51.72240 | 13.25515 | 23197 ft | 407 kts | 314° |
| 2026-05-06 16:37 | 51.73673 | 13.23452 | 23544 ft | 409 kts | 314° |
| 2026-05-06 16:37 | 51.75802 | 13.20381 | 24021 ft | 412 kts | 314° |
| 2026-05-06 16:38 | 51.77943 | 13.17291 | 24563 ft | 413 kts | 314° |
| 2026-05-06 16:38 | 51.80089 | 13.14198 | 25083 ft | 415 kts | 313° |
| 2026-05-06 16:38 | 51.82248 | 13.11085 | 25583 ft | 417 kts | 313° |
| 2026-05-06 16:38 | 51.84417 | 13.07955 | 26028 ft | 420 kts | 313° |
| 2026-05-06 16:39 | 51.86601 | 13.04798 | 26460 ft | 423 kts | 312° |
| 2026-05-06 16:39 | 51.88805 | 13.01600 | 26901 ft | 426 kts | 312° |
| 2026-05-06 16:39 | 51.91014 | 12.98391 | 27337 ft | 429 kts | 312° |
| 2026-05-06 16:39 | 51.93244 | 12.95149 | 27719 ft | 432 kts | 312° |
| 2026-05-06 16:40 | 51.95477 | 12.91898 | 27806 ft | 426 kts | 312° |
| 2026-05-06 16:40 | 51.97662 | 12.88725 | 27823 ft | 418 kts | 311° |
| 2026-05-06 16:40 | 51.99812 | 12.85594 | 27818 ft | 415 kts | 311° |
| 2026-05-06 16:40 | 52.01951 | 12.82470 | 27837 ft | 413 kts | 311° |
| 2026-05-06 16:41 | 52.04090 | 12.79331 | 27817 ft | 414 kts | 311° |
| 2026-05-06 16:41 | 52.06225 | 12.76193 | 27820 ft | 414 kts | 311° |
| 2026-05-06 16:41 | 52.08360 | 12.73050 | 27841 ft | 413 kts | 311° |
| 2026-05-06 16:41 | 52.10471 | 12.69944 | 27822 ft | 412 kts | 311° |
| 2026-05-06 16:42 | 52.12600 | 12.66815 | 27821 ft | 412 kts | 311° |
| 2026-05-06 16:42 | 52.14725 | 12.63691 | 27820 ft | 412 kts | 311° |
| 2026-05-06 16:42 | 52.16850 | 12.60559 | 27818 ft | 412 kts | 311° |
| 2026-05-06 16:42 | 52.18971 | 12.57425 | 27816 ft | 412 kts | 311° |
| 2026-05-06 16:43 | 52.21091 | 12.54287 | 27818 ft | 412 kts | 311° |
| 2026-05-06 16:43 | 52.23238 | 12.51100 | 27817 ft | 412 kts | 311° |
| 2026-05-06 16:43 | 52.25323 | 12.47998 | 27817 ft | 412 kts | 311° |
| 2026-05-06 16:43 | 52.27395 | 12.44781 | 27816 ft | 409 kts | 309° |
| 2026-05-06 16:44 | 52.29407 | 12.41404 | 27827 ft | 408 kts | 307° |
| 2026-05-06 16:44 | 52.31332 | 12.38010 | 27819 ft | 408 kts | 307° |
| 2026-05-06 16:44 | 52.33229 | 12.34633 | 27819 ft | 409 kts | 309° |
| 2026-05-06 16:44 | 52.35362 | 12.31364 | 27827 ft | 424 kts | 312° |
| 2026-05-06 16:45 | 52.37593 | 12.28070 | 27841 ft | 438 kts | 313° |
| 2026-05-06 16:45 | 52.39906 | 12.24715 | 27823 ft | 450 kts | 313° |
| 2026-05-06 16:45 | 52.42289 | 12.21288 | 27823 ft | 461 kts | 314° |
| 2026-05-06 16:45 | 52.44733 | 12.17784 | 27827 ft | 471 kts | 314° |
| 2026-05-06 16:46 | 52.47210 | 12.14231 | 27826 ft | 477 kts | 314° |
| 2026-05-06 16:46 | 52.49711 | 12.10637 | 27821 ft | 478 kts | 314° |
| 2026-05-06 16:46 | 52.52217 | 12.07025 | 27836 ft | 479 kts | 314° |
| 2026-05-06 16:46 | 52.54715 | 12.03415 | 27839 ft | 481 kts | 314° |
| 2026-05-06 16:47 | 52.57224 | 11.99770 | 27829 ft | 482 kts | 313° |
| 2026-05-06 16:47 | 52.59742 | 11.96098 | 27830 ft | 483 kts | 313° |
| 2026-05-06 16:47 | 52.62252 | 11.92425 | 27830 ft | 483 kts | 313° |
| 2026-05-06 16:47 | 52.64788 | 11.88782 | 27830 ft | 484 kts | 315° |
| 2026-05-06 16:48 | 52.67411 | 11.85270 | 27843 ft | 485 kts | 317° |
| 2026-05-06 16:48 | 52.70087 | 11.81895 | 27843 ft | 486 kts | 319° |
| 2026-05-06 16:48 | 52.72810 | 11.78578 | 27844 ft | 486 kts | 319° |
| 2026-05-06 16:48 | 52.75529 | 11.75287 | 27843 ft | 485 kts | 319° |
| 2026-05-06 16:49 | 52.78237 | 11.71960 | 27839 ft | 485 kts | 319° |
| 2026-05-06 16:49 | 52.80924 | 11.68595 | 27839 ft | 484 kts | 318° |
| 2026-05-06 16:49 | 52.83592 | 11.65198 | 27863 ft | 484 kts | 319° |
| 2026-05-06 16:49 | 52.86250 | 11.61778 | 27844 ft | 484 kts | 319° |
| 2026-05-06 16:50 | 52.88905 | 11.58345 | 27834 ft | 484 kts | 319° |
| 2026-05-06 16:50 | 52.91563 | 11.54904 | 27828 ft | 484 kts | 319° |
| 2026-05-06 16:50 | 52.94191 | 11.51513 | 27824 ft | 485 kts | 319° |
| 2026-05-06 16:50 | 52.96860 | 11.48082 | 27822 ft | 485 kts | 319° |
| 2026-05-06 16:51 | 52.99534 | 11.44651 | 27697 ft | 486 kts | 319° |
| 2026-05-06 16:51 | 53.02209 | 11.41211 | 27245 ft | 486 kts | 319° |
| 2026-05-06 16:51 | 53.04658 | 11.37373 | 26789 ft | 481 kts | 307° |
| 2026-05-06 16:51 | 53.06449 | 11.32795 | 26299 ft | 466 kts | 292° |
| 2026-05-06 16:52 | 53.07639 | 11.27851 | 25814 ft | 458 kts | 287° |